ŚNIADANIOWY BIEG MORSÓW O PUCHAR BURMISTRZA MIELNA – 5KM

Organizator/ Organizer:
Gmina Mielno, Centrum Kultury w Mielnie – Biuro Organizacyjne Zlotu Morsów
Data/ Date:
2018-02-10
Miejsce/ Place:
Mielno
Dystans/ Distance:
5 km
Zgłoszonych/ Registered:
177
Wystartowało/ Started:
157
Nie ukończyło/ Not finished:
1
Ukończyło/ Finished:
156
Na trasie/ On track:
0

Klasyfikacja/ Classiffication: Wszyscy

Wyniki nieoficjalne !!!
Pełne wyniki/ Full Results : PDF | CSV
Wyniki uproszczone/ Simple results : PDF | PDF2 | CSV
 
Klasyfikacje w punktach pomiarowych/ Classification for time points: Meta
Klasyfikacje wg kategorii/ Classification by category: Wszyscy | K-Open | M-Open | K-13 | M-13 | K-18 | M-18 | K-30 | M-30 | K-40 | M-40 | K-50 | M-50 | K-60 | M-60 | K-70+ | M-70+

Msc/ RnkZawodnik/ NameNumer/ BibKlub/ TeamMiejscowość/ CityKraj/ CountryKategoria/ CategoryMkat/ CatRnkK/M/ W/MCzas
netto
5km
Różn/ GapTempo
min/km
Tempo
km/h
     
1KĘPKA Adrian 138WIEKOWOM-181M 100:18:03.35 3:3616.6
2CHMIEL Piotr 136NURT MOSTKIMOSTKIM-401M 200:18:15.30+00:00:113:3916.4
3IGNACZAK Piotr 33KB.10.BIAŁOGARDBIAŁOGARDM-182M 300:19:07.30+00:01:033:4915.7
4TELATYŃSKA Sylwia 172AKTYWNE CHOSZCZNOCHOSZCZNOK-401K 100:20:19.35+00:02:164:0414.8
5MORGIEWICZ Piotr 70RUN GRYF GRYFICEGRYFICEM-501M 400:21:03.50+00:03:004:1214.3
6NOWAK Łukasz 139WROCŁAWSKIE MORSYWROCŁAWM-301M 500:21:06.20+00:03:024:1314.2
7MALEC Mariusz 65STARGARDZKI KLUB MORSÓW MIEDWIANIESTARGARDM-402M 600:21:20.00+00:03:164:1614.1
8STEFANOWICZ Paweł 109RUNNING ORLEN TEAMKOSZALINM-403M 700:21:22.40+00:03:194:1614
9KONKEL Agnieszka 46KOSZALINK-301K 200:21:36.45+00:03:334:1913.9
10RODAK Zbigniew 95STRZEGOMSKA DWUNASTKASTRZEGOMM-302M 800:21:59.05+00:03:554:2313.6
11BERNATEK Marcin 4STRZEGOMSKA DWUNASTKASTRZEGOMM-303M 900:22:13.05+00:04:094:2613.5
12BIEŃKOWSKI Tomasz 6NIEKŁONICEM-304M 1000:22:22.70+00:04:194:2813.4
13SZCZEPANEK Janusz 110SZARE MORSYJASTRZĘBIE-ZDRÓJM-404M 1100:22:25.70+00:04:224:2913.4
14ŚMIGIELSKI Marcin 113MORSY NA KOKSIEZDZIESZOWICEM-183M 1200:22:30.50+00:04:274:3013.3
15SAWICKI Adam 134MARATONKIPROSTKIM-405M 1300:22:39.15+00:04:354:3113.2
16WOLIŃSKI Benedykt 174MORSY LODOŁAMACZSKIERNIEWICEM-406M 1400:22:39.65+00:04:364:3113.2
17GRUNTOWSKI Mateusz 155NIEMO ADVENTURENIEMODLINM-305M 1500:22:44.85+00:04:414:3313.2
18SZYMAŃSKI Michał 112STRZEGOMSKA DWUNASTKAJAROSZÓWM-306M 1600:22:48.00+00:04:444:3313.2
19MIELCZAREK Krystian 68STARGARDZKI KLUB MORSÓW MIEDWIANIEDOLICEM-307M 1700:22:48.75+00:04:454:3313.1
20DZIETCZYK Kamil 170AKTYWNE CHOSZCZNOCHOSZCZNOM-308M 1800:22:59.85+00:04:564:3613
21MICHALIK Grzegorz 126ZAMORSOWANI CZĘSTOCHOWACZĘSTOCHOWAM-407M 1900:23:02.40+00:04:594:3613
22JEDRYCHA Mariusz 169MORSY LODOŁAMACZSKIERNIEWICEM-408M 2000:23:11.50+00:05:084:3812.9
23PICK Tomasz 85MK KOSZALINKOSZALINM-409M 2100:23:24.10+00:05:204:4012.8
24ZAHRI Kamil 152KS AMBER MORSY TOMASZÓW MAZOWIECKITOMASZÓW MAZOWIECKIM-309M 2200:23:29.05+00:05:254:4112.8
25LACH Krzysztof 58KLIMA WRZEŚNIAWRZEŚNIAM-4010M 2300:23:38.30+00:05:344:4312.7
26KOPYŚCIAŃSKI Piotr 48LEGNICKIE MORSYRUSKOM-4011M 2400:23:42.55+00:05:394:4412.6
27RADULEWICZ Sebastian 153MORSY LEGNICARASZÓWKAM-4012M 2500:23:43.15+00:05:394:4412.6
28SZYMAŃSKA Brygida 111STRZEGOMSKA DWUNASTKAJAROSZÓWK-181K 300:23:45.35+00:05:424:4512.6
29JESSA Włodzimierz 148ŚREMM-502M 2600:23:49.65+00:05:464:4612.6
30PAWLIKOWSKI Jacek 82KKM KALORYFERKRAKÓWM-503M 2700:23:52.95+00:05:494:4612.6
31ŚWITA Jarosław 114FORMA WODZISŁAW ŚL.WODZISŁAW ŚL.M-4013M 2800:23:54.30+00:05:504:4712.5
32KRZEMIŃSKI Adam 54RUNNERS TEAM KĘTRZYNKĘTRZYNM-4014M 2900:23:58.00+00:05:544:4712.5
33ZIÓŁKOWSKI Krzysztof 122OPOCZYŃSKI KLUB MORSÓWOPOCZNOM-184M 3000:23:59.75+00:05:564:4712.5
34SŁOWIŃSKI Łukasz 107ŚREMSKI KLUB LODZIKŚREMM-3010M 3100:24:07.10+00:06:034:4912.4
35GLISZCZYŃSKI Łukasz 27ŚWIAT PŁYTEK U KRYSPINABYTÓWM-185M 3200:24:09.75+00:06:064:4912.4
36BOCHEŃSKI Rafał 9KKM KALORYFERKRAKÓWM-3011M 3300:24:14.00+00:06:104:5012.4
37GNIOT Patryk 157MORSY NA KOKSIEZDZIESZOWICEM-131M 3400:24:16.35+00:06:134:5112.4
38MOSJO Radek 71KS AMBER MORSY TOMASZÓW MAZOWIECKITOMASZÓW MAZOWIECKIM-3012M 3500:24:19.20+00:06:154:5112.3
39PLICH Agnieszka 87KS AMBER MORSY TOMASZÓW MAZOWIECKITOMASZÓW MAZOWIECKIK-402K 400:24:19.60+00:06:164:5112.3
40MARCINIAK Michał 67ŚREMSKI KLUB MORSÓW MROZIKŚREMM-3013M 3600:24:20.05+00:06:164:5212.3
41SZYCIK Waldemar 131MARATONKIGRAJEWOM-4015M 3700:24:20.25+00:06:164:5212.3
42IZYDOREK Wojciech 34KLIMA WRZEŚNIA/ NRWWRZEŚNIAM-3014M 3800:24:22.20+00:06:184:5212.3
43RUTKOWSKI Ryszard 97RUTKOWSKI TEAMSIANÓWM-504M 3900:24:26.30+00:06:224:5312.3
44RUTKOWSKI Artur 98RUTKOWSKI TEAMSIANÓWM-186M 4000:24:37.35+00:06:344:5512.2
45MYSZKA Marcin 133MARATONKIGRAJEWOM-4016M 4100:24:41.85+00:06:384:5612.1
46KAMIŃSKI Krzysztof 142MORSY LEGNICALEGNICAM-505M 4200:24:45.85+00:06:424:5712.1
47KRYSA-KOSZTYŁA Kamila 53KKM KALORYFERKRAKÓWK-302K 500:25:23.90+00:07:205:0411.8
48SOBCZYŃSKI Michał 145KLUB ŚREM MROZIKMARIANOWOM-187M 4300:25:24.50+00:07:215:0511.8
49KAŹMIERCZAK Hanna 42ŚREMSKI KLUB MORSÓW MROZIKŚREMK-403K 600:25:26.65+00:07:235:0511.8
50KAZIMIEROWICZ Radosław 41VTT KOSZALINKOSZALINM-3015M 4400:25:38.10+00:07:345:0711.7
51KORCZAK Piotr 49GÓRSKIE WŁÓCZYKIJEPŁOCKM-188M 4500:25:41.35+00:07:385:0811.7
52LECHOWICZ Tadeusz 60SZARE MORSYJASTRZĘBIE-ZDRÓJM-506M 4600:25:41.70+00:07:385:0811.7
53ZBROSZCZYK Jerzy 173MIEDWIENIESTARGARDM-4017M 4700:25:45.65+00:07:425:0911.6
54PŁOSZAJCZYK Norbert 89STRZEGOMSKA DWUNASTKABOLKÓWM-507M 4800:25:46.40+00:07:435:0911.6
55MATCZAK Jacek 160M-4018M 4900:25:55.90+00:07:525:1111.6
56KONKEL Łukasz 47KOSZALINM-3016M 5000:26:09.75+00:08:065:1311.5
57RĘDZIA Tomasz 167ŻORYM-4019M 5100:26:29.50+00:08:265:1811.3
58GNIOT Katarzyna 156MORSY NA KOKSIEZDZIESZOWICEK-303K 700:26:32.20+00:08:285:1811.3
59WARCHOŁ Grzegorz 117MORSY NA KOKSIEZDZIESZOWICEM-3017M 5200:26:35.85+00:08:325:1911.3
60PROKOP Elżbieta 92GLIWICKIE MORSY I FOCZKIGLIWICEK-501K 800:26:35.95+00:08:325:1911.3
61GRADUS Ilona 29MORSY WARSZAWA - JEZIORKO CZERNIAKOWSKIEWARSZAWAK-304K 900:26:41.65+00:08:385:2011.2
62WOŹNY Rafał 121BAKSTERZYBRODNICAM-4020M 5300:26:44.65+00:08:415:2111.2
63BOGDANOWSKI Andrzej 10ZOR STOCKHOLMSODERTALJEM-3018M 5400:26:45.10+00:08:415:2111.2
64NOWAK Jarosław 175MORSY LODOŁAMACZCHODZIEŻM-4021M 5500:26:50.45+00:08:475:2211.2
65MOŃKA Andrzej 141ZMORSOWANI CZĘSTOCHOWACZĘSTOCHOWAM-4022M 5600:26:56.20+00:08:525:2311.1
66PEŁKA Aneta 84KS AMBER MORSY TOMASZÓW MAZOWIECKITOMASZÓW MAZOWIECKIK-404K 1000:26:57.30+00:08:535:2311.1
67KANIAK Marcin 151MORSYBORÓW NIEMODLINSKICHNIEMODLINM-4023M 5700:27:03.20+00:08:595:2411.1
68KANIEWSKI Grzegorz 127KLIMA MORSY WRZEŚNIAMIŁOSAŁAWM-4024M 5800:27:13.30+00:09:095:2611
69WOŁCZYK Małgorzata 119KS AMBER MORSY TOMASZÓW MAZOWIECKITOMASZÓW MAZOWIECKIK-305K 1100:27:25.30+00:09:215:2910.9
70BARAN Dominika 124WROCŁAWSKIE MORSYWROCŁAWK-306K 1200:27:28.30+00:09:245:2910.9
71FEDYCZKOWSKA Justyna 20STRZEGOMSKA DWUNASTKASTRZEGOMK-405K 1300:27:30.80+00:09:275:3010.9
72RAJSKI Marcin 176KS AMBER MORSY TOMASZÓW MAZOWIECKITOMASZÓW MAZOWIECKIM-4025M 5900:27:32.65+00:09:295:3010.9
73JUSZCZAK Krzysztof 38KOSZALINM-601M 6000:27:33.20+00:09:295:3010.9
74RODEWALD Ryszard 96JELENIA GÓRAM-4026M 6100:27:37.95+00:09:345:3110.9
75LAL Monika 59RUNGRYFGRYFICEK-502K 1400:27:47.85+00:09:445:3310.8
76PACAN Mira 76ŚWIAT PŁYTEK U KRYSPINABYTÓWK-307K 1500:27:50.80+00:09:475:3410.8
77OPARA Roman 129ARTICAEŁKM-508M 6200:28:12.15+00:10:085:3810.6
78GRABOWSKA-LESISZ Aneta 28KOSZALINK-406K 1600:28:13.25+00:10:095:3810.6
79GALIŃSKI Paweł 24KS AMBER MORSY TOMASZÓW MAZOWIECKITOMASZÓW MAZOWIECKIM-4027M 6300:28:17.20+00:10:135:3910.6
80PAWLINA Karolina 83ŁÓDZKIE MORSYKONSTANTYNÓW ŁÓDZKIK-308K 1700:28:18.85+00:10:155:3910.6
81ŁUBIK Renata 62PRO-RUN WROCŁAW/WROCŁAWSKIE MORSYKIEŁCZÓWK-407K 1800:28:25.35+00:10:225:4110.6
82KAWĘCKI Bogdan 40POLAR BARTOSZYCEBARTOSZYCEM-4028M 6400:28:33.50+00:10:305:4210.5
83WIŚNIEWSKA Monika 144STARGARDZKI KLUB MORSÓW MIEDWIANIESTARGARDK-408K 1900:28:33.60+00:10:305:4210.5
84KOGUT Gerard 130KKM KALORYFERKRAKÓWM-132M 6500:28:38.45+00:10:355:4310.5
85BORYSIEWICZ Joanna 11KOSZALINK-309K 2000:28:40.40+00:10:375:4410.5
86LESISZ Michał 61KOSZALINM-4029M 6600:28:43.10+00:10:395:4410.4
87PAKOWSKI Robert 79KS AMBER MORSY TOMASZÓW MAZOWIECKITOMASZÓW MAZOWIECKIM-4030M 6700:28:46.55+00:10:435:4510.4
88MANIA Ireneusz 66BŁĘKITNE MORSY ŁEBSKIEŁEBAM-509M 6800:28:55.55+00:10:525:4710.4
89CHMIEL Nina 137NURT MOSTKIMOSTKIK-409K 2100:28:57.15+00:10:535:4710.4
90DUDEK Magdalena 13KKM KALORYFERKRAKÓWK-3010K 2200:28:59.20+00:10:555:4810.3
91GWOŹDZIOWSKI Marcin 31KKM KALORYFERTARNOBRZEGM-4031M 6900:29:01.80+00:10:585:4810.3
92BAJCAR Beata 1SZARE MORSYCHYBIEK-4010K 2300:29:02.65+00:10:595:4810.3
93GIET Małgorzata 177MORSY DĘBOWAKĘDZIERZYN KOŹLEK-4011K 2400:29:07.50+00:11:045:4910.3
94BARAN Irena 2SZARE MORSYJASTRZĘBIE-ZDRÓJK-503K 2500:29:20.45+00:11:175:5210.2
95GIŻYŃSKA Katarzyna 25SZARE MORSYJASTRZĘBIE-ZDRÓJK-3011K 2600:29:26.10+00:11:225:5310.2
96KOSOWSKI Jacek 51BRODNICAM-5010M 7000:29:27.50+00:11:245:5310.2
97SERWICKA Emilka 101JURAJSKIE MORSYZAWIERCIEK-504K 2700:29:29.55+00:11:265:5310.2
98SKROBIŚ Barbara 106MORSY BOLESŁAWIECGIERAŁTÓWK-4012K 2800:29:30.55+00:11:275:5410.2
99GLINKA Joanna 26MORSSZTOKHOLMK-505K 2900:29:32.20+00:11:285:5410.2
100PIETRZAK Dawid 86NIGHT RUNNERS WRZEŚNIA/KLIMA MORSY WRZEŚNIAWRZEŚNIAM-3019M 7100:29:48.20+00:11:445:5710.1
101BŁASZAK Monika 7NIGHT RUNNERS WRZEŚNIA/KLIMA MORSY WRZEŚNIAWRZEŚNIAK-3012K 3000:29:48.75+00:11:455:5710.1
102RAWSKI Jerzy 171MORSY BRZEGBRZEGM-3020M 7200:29:50.25+00:11:465:5810.1
103WACHHOLZ Beata 116KB BRYZA OSTOMINOSŁAWNOK-4013K 3100:29:50.70+00:11:475:5810.1
104BIBIK Andrzej 5UZARZEWOM-3021M 7300:30:00.60+00:11:576:0010
105PŁOSZAJCZYK Beata 88STRZEGOMSKA DWUNASTKABOLKÓWK-506K 3200:30:08.65+00:12:056:0110
106KRZEMIŃSKA Aanna 128KĘTRZYNK-3013K 3300:30:10.40+00:12:076:029.9
107SROKA Lidia 143JURAJSKIE MORSYZAWIERCIEK-4014K 3400:30:22.40+00:12:196:049.9
108POGORZELSKA Wiesława 90GORZYCEK-3014K 3500:30:24.55+00:12:216:059.9
109KOWALCZYK Adam 158KLIMA MORSY WRZEŚNIADZIERŻNICAM-4032M 7400:30:27.10+00:12:236:059.9
110WOJCIECHOWSKA-BRZEZIŃSKA Barbara 135MORSY GDYNIAGDYNIAK-507K 3600:30:27.15+00:12:236:059.9
111DUDEK Mariola 163STRZEGOMSKA DWUNASTKAJAROSŁAWK-4015K 3700:30:33.30+00:12:296:069.8
112DUDEK Krzysztof 162STRZEGOMSKA DWUNASTKAJAROSŁAWM-4033M 7500:30:35.55+00:12:326:079.8
113LECH Monika 154MORSY WOŁOMINWOŁOMINK-3015K 3800:30:50.85+00:12:476:109.7
114KONARSKA Madlena 45MORSY DĄBIE LUBUSKIERADNICAK-3016K 3900:31:03.15+00:12:596:129.7
115HELLER Zdzisław 32NIEZRZESZONYKOSZALINM-602M 7600:31:18.60+00:13:156:159.6
116DZIEŻA Robert 18MORSY LUBINLUBINM-4034M 7700:31:36.05+00:13:326:199.5
117KOWALISZYN Małgorzata 52JELENIA GÓRAK-4016K 4000:31:50.35+00:13:476:229.4
118FILIPOWICZ Agnieszka 22MORSY ZIEMI CHRZANOWSKIEJTRZEBINIAK-4017K 4100:31:50.60+00:13:476:229.4
119KUMOSZ Monika 161MORSY BOLESŁAWIECOSIECZNICAK-4018K 4200:31:53.75+00:13:506:229.4
120KUMOSZ Mirosław 159MORSY BOLESŁAWIECBOLESŁAWIECM-4035M 7800:31:55.25+00:13:516:239.4
121SKAŁA Rafał 146JURAJSKIE MORSYZAWIERCIEM-4036M 7900:32:08.55+00:14:056:259.3
122SKAŁA Renata 147JURAJSKIE MORSYZAWIERCIEK-3017K 4300:32:11.00+00:14:076:269.3
123GRZYMAŁA Angelika 168POSEJDONKOSZALINK-4019K 4400:32:13.85+00:14:106:269.3
124SŁOTWIŃSKA Gracja 164MORSY BOLESŁAWIECBOLESŁAWIECK-3018K 4500:32:14.40+00:14:116:279.3
125SIERGIEJ Iwona 102KOSZALINK-4020K 4600:32:14.75+00:14:116:269.3
126KIEŁKOWSKA Agnieszka 43SZARE MORSYJASTRZĘBIE-ZDRÓJK-4021K 4700:32:15.70+00:14:126:279.3
127BARTCZAK Karolina 3UZARZEWOK-182K 4800:32:18.00+00:14:146:279.3
128DZIECHCIARZ-DUDA Joanna 17JURAJSKIE MORSYZAWIERCIEK-4022K 4900:32:26.05+00:14:226:299.2
129DUDA Maciej 12JURAJSKIE MORSYZAWIERCIEM-5011M 8000:32:26.90+00:14:236:299.2
130JANUS Łukasz 150JURAJSKIE MORSYM-3022M 8100:32:36.30+00:14:326:319.2
131JANUS Monika 149JURAJSKIE MORSYK-3019K 5000:32:38.15+00:14:346:319.2
132KURCZ Barbara 57BABECZKI KOSZALINKOSZALINK-4023K 5100:32:46.60+00:14:436:339.2
133FONFERKO Daria 23STRZEGOMSKA DWUNASTKASTRZEGOMK-3020K 5200:32:54.35+00:14:516:359.1
134KOSOWSKA Jolanta 50KROSNOK-508K 5300:33:00.85+00:14:576:369.1
135WOŹNA Dorota 120BAKSTERZYBRODNICAK-4024K 5400:33:00.90+00:14:576:369.1
136PRZYBYŁO Sławek 93STRZEGOMSKA DWUNASTKASTRZEGOMM-4037M 8200:33:32.25+00:15:286:428.9
137FEDYCZKOWSKI Edward 21STRZEGOMSKA DWUNASTKASTRZEGOMM-4038M 8300:33:34.10+00:15:306:428.9
138EJSMONT Monika 19AMBERTOMASZÓW MAZOWIECKIK-4025K 5500:33:35.05+00:15:316:438.9
139KUCHARCZYK Robert 55MORSY GRYFICEGRYFICEM-4039M 8400:33:49.10+00:15:456:458.9
140SKOWYRA Wioletta 104MORSY GRYF-ICEBARKOWOK-4026K 5600:33:49.15+00:15:456:458.9
141NOWAK Irena 741965.GRYFICEK-509K 5700:33:51.15+00:15:476:468.9
142SKOWYRA Arkadiusz 105MORSY GRYF-ICEBARKOWOM-3023M 8500:33:52.55+00:15:496:468.9
143KUJAWA Jarek 56KLUB MORSÓW ESKIMO GORZÓW -KŁODAWAGORZÓW WLKPM-4040M 8600:34:06.00+00:16:026:498.8
144KANIOWSKI Piotr 39ROKITNO SZLACHECKIEM-3024M 8700:34:26.35+00:16:236:538.7
145DYCFELD Jerzy 14MORSY BRZEGBRZEGM-603M 8800:34:38.20+00:16:346:558.7
146NOWAK Marta 75STARGARDZKI KLUB MORSÓW MIEDWIANIESTARGARDK-183K 5800:34:44.50+00:16:416:568.6
147SZYMAŃSKA Justryna 140KRÓLEWSKIE MORSY GNIEZNOGNIEZNOK-184K 5900:35:47.50+00:17:447:098.4
148SZYCIK Swietłana 132MARATONKIGRAJEWOK-4027K 6000:35:53.50+00:17:507:108.4
149PAJĄK Anna 78KS AMBER MORSY TOMASZÓW MAZOWIECKITOMASZÓW MAZOWIECKIK-4028K 6100:35:59.60+00:17:567:128.3
150WOICKA Ewa 118KS AMBER MORSY TOMASZÓW MAZOWIECKITOMASZÓW MAZOWIECKIK-4029K 6200:36:00.90+00:17:577:128.3
151STANISZEWSKA Elżbieta 108POZNAŃK-4030K 6300:36:24.25+00:18:207:168.2
152RZEPECKI Bartłomiej 125WROCŁAWSKIE MORSYWROCŁAWM-3025M 8900:36:55.80+00:18:527:238.1
153SIKORRA Janina 103BŁĘKITNE MORSY ŁEBSKIELEDZIECHOWOK-70+1K 6400:39:18.70+00:21:157:517.6
154MIELCZAREK Marta 69STARGARDZKI KLUB MORSÓW MIEDWIANIESTARGARDK-185K 6500:39:45.75+00:21:427:577.5
155TOMAŚKO Stanisław 115MORSY GDYŃSKIEGDYNIAM-604M 9000:41:14.90+00:23:118:157.3
156BŁASZCZUK Maja 8STOWARZYSZENIE MORSÓW GDYŃSKICHGDYNIAK-3021K 6600:41:17.75+00:23:148:157.3
JĘDRZYCKA Małgorzata 37KLUB MORSÓW MORŚWINYŚWINOUJŚCIEK-40 DNF--
Znaleziono 157 wynik(ów)